createdAt,value
2019-03-01T06:27:18.304Z,13.70
2019-03-01T06:28:18.133Z,45.20
2019-03-01T06:29:18.966Z,45.40
2019-03-01T06:30:18.152Z,44.50
2019-03-01T06:31:18.116Z,45.30
2019-03-01T06:32:18.060Z,44.20
2019-03-01T06:33:18.197Z,44.80
2019-03-01T06:34:18.218Z,45.10
2019-03-01T06:35:18.246Z,44.40
2019-03-01T06:36:19.488Z,45.50
2019-03-01T06:37:23.800Z,43.70
2019-03-01T06:38:20.215Z,44.90
2019-03-01T06:39:20.968Z,44.60
2019-03-01T06:40:21.550Z,45.50
2019-03-01T07:30:43.352Z,37.90
2019-03-01T07:31:40.798Z,43.10
2019-03-01T07:32:41.609Z,42.40
2019-03-01T07:33:39.901Z,41.90
2019-03-01T07:34:39.651Z,42.60
2019-03-01T07:35:39.768Z,42.50
2019-03-01T07:36:39.764Z,41.70
2019-03-01T07:37:39.549Z,41.40
2019-03-01T07:38:39.531Z,40.30
2019-03-01T07:39:39.618Z,41.10
2019-03-01T07:40:39.488Z,41.40
2019-03-01T07:41:39.700Z,40.90
2019-03-01T07:42:40.376Z,41.40
2019-03-01T07:43:39.675Z,40.80
2019-03-01T07:45:50.871Z,35.40
2019-03-01T07:46:53.197Z,40.70
2019-03-01T07:47:50.434Z,41.00
2019-03-01T07:48:50.335Z,41.30
2019-03-01T07:49:52.079Z,40.40
2019-03-01T07:50:52.456Z,39.70
2019-03-01T07:51:50.310Z,41.30
2019-03-01T07:52:50.198Z,40.40
2019-03-01T07:53:50.313Z,41.70
2019-03-01T07:54:52.751Z,40.30
2019-03-01T07:55:50.149Z,39.60
2019-03-01T07:56:50.139Z,40.60
2019-03-01T07:57:50.670Z,41.30
2019-03-01T07:58:50.175Z,42.30
2019-03-01T07:59:50.134Z,42.50
2019-03-01T08:00:53.266Z,41.70
2019-03-01T08:01:50.139Z,41.50
2019-03-01T08:02:50.198Z,43.20
2019-03-01T08:03:53.019Z,42.90
2019-03-01T08:04:50.188Z,41.80
2019-03-01T08:05:50.270Z,42.00
2019-03-01T08:06:50.003Z,42.50
2019-03-01T08:07:56.037Z,41.60
2019-03-01T08:08:51.190Z,42.70
2019-03-01T08:09:50.039Z,43.60
2019-03-01T08:10:50.015Z,42.30
2019-03-01T08:11:49.983Z,43.50
2019-03-01T08:12:50.004Z,43.20
2019-03-01T08:13:53.199Z,43.40
2019-03-01T08:14:50.030Z,44.70
2019-03-01T08:15:50.018Z,45.70
2019-03-01T08:16:52.577Z,43.90
2019-03-01T08:17:50.962Z,42.60
2019-03-01T08:18:49.941Z,44.60
2019-03-01T08:19:49.928Z,45.00
2019-03-01T08:20:49.944Z,44.80
2019-03-01T08:21:50.002Z,45.60
2019-03-01T08:22:50.032Z,47.00
2019-03-01T08:23:50.555Z,44.40
2019-03-01T08:24:49.906Z,45.60
2019-03-01T08:25:49.846Z,45.80
2019-03-01T08:26:49.930Z,45.80
2019-03-01T08:27:50.650Z,46.10
2019-03-01T08:28:49.820Z,45.70
2019-03-01T08:29:49.860Z,45.20
2019-03-01T08:30:50.448Z,46.10
2019-03-01T08:31:52.687Z,47.80
2019-03-01T08:32:50.770Z,45.90
2019-03-01T08:33:49.869Z,46.20
2019-03-01T08:34:53.385Z,46.90
2019-03-01T08:35:49.820Z,46.00
2019-03-01T08:36:49.695Z,46.70
2019-03-01T08:37:53.550Z,48.30
2019-03-01T08:38:50.476Z,49.40
2019-03-01T08:39:50.458Z,49.30
2019-03-01T08:40:50.141Z,51.20
2019-03-01T08:41:49.928Z,50.90
2019-03-01T08:42:49.763Z,49.40
2019-03-01T08:43:49.711Z,51.40
2019-03-01T08:44:49.574Z,51.00
2019-03-01T08:45:49.623Z,51.40
2019-03-01T08:46:49.698Z,49.50
2019-03-01T08:47:49.564Z,49.80
2019-03-01T08:48:49.641Z,52.10
2019-03-01T08:49:49.558Z,49.80
2019-03-01T08:50:49.602Z,49.70
2019-03-01T08:51:49.674Z,52.60
2019-03-01T08:52:49.544Z,51.80
2019-03-01T08:53:51.026Z,51.80
2019-03-01T08:54:49.520Z,50.40
2019-03-01T08:55:49.570Z,52.20
2019-03-01T08:56:50.250Z,52.40
2019-03-01T08:57:49.519Z,52.30
2019-03-01T08:58:49.451Z,52.10
2019-03-01T08:59:49.480Z,53.00
2019-03-01T09:00:59.016Z,51.60
2019-03-01T09:01:50.442Z,52.00
2019-03-01T09:02:49.593Z,53.60
2019-03-01T09:03:49.533Z,52.50
2019-03-01T09:04:51.179Z,54.50
2019-03-01T09:05:49.383Z,52.40
2019-03-01T09:06:49.438Z,54.70
2019-03-01T09:07:49.474Z,56.00
2019-03-01T09:08:49.510Z,55.30
2019-03-01T09:09:50.423Z,56.60
2019-03-01T09:10:49.320Z,56.40
2019-03-01T09:11:49.289Z,55.60
2019-03-01T09:12:49.410Z,58.10
2019-03-01T09:13:49.285Z,56.70
2019-03-01T09:14:49.317Z,58.10
2019-03-01T09:15:50.436Z,60.20
2019-03-01T09:16:49.269Z,60.20
2019-03-01T09:17:49.229Z,61.80
2019-03-01T09:18:50.090Z,61.10
2019-03-01T09:19:49.194Z,61.80
2019-03-01T09:20:49.221Z,62.90
2019-03-01T09:21:50.873Z,63.40
2019-03-01T09:22:49.200Z,64.80
2019-03-01T09:23:52.284Z,64.40
2019-03-01T09:24:49.313Z,64.00
2019-03-01T09:25:49.845Z,66.50
2019-03-01T09:26:51.545Z,66.20
2019-03-01T09:27:50.167Z,65.70
2019-03-01T09:28:49.133Z,66.10
2019-03-01T09:29:49.124Z,68.30
2019-03-01T09:30:49.183Z,67.10
2019-03-01T09:31:50.695Z,68.00
2019-03-01T09:32:49.112Z,67.90
2019-03-01T09:33:49.058Z,68.50
2019-03-01T09:34:49.132Z,68.50
2019-03-01T09:35:50.015Z,69.10
2019-03-01T09:36:51.536Z,68.50
2019-03-01T09:37:50.014Z,70.80
2019-03-01T09:38:49.019Z,70.40
2019-03-01T09:39:50.425Z,74.80
2019-03-01T09:40:49.021Z,75.80
2019-03-01T09:41:49.143Z,73.60
2019-03-01T09:42:51.339Z,74.60
2019-03-01T09:50:46.641Z,70.30
2019-03-01T09:54:09.289Z,61.40
2019-03-01T09:55:06.313Z,68.30
2019-03-01T09:56:09.640Z,69.70
2019-03-01T10:07:10.716Z,55.10
2019-03-01T10:08:11.331Z,62.10
2019-03-01T10:09:31.518Z,58.40
2019-03-01T10:13:04.934Z,53.10
2019-03-01T10:14:03.714Z,59.10
2019-03-01T10:27:13.496Z,45.50
2019-03-01T10:28:14.487Z,53.50
2019-03-01T10:29:12.539Z,53.40
2019-03-01T10:30:12.375Z,55.20
2019-03-01T10:31:12.490Z,54.20
2019-03-01T10:32:12.590Z,56.50
2019-03-01T10:33:12.555Z,54.10
2019-03-01T10:34:13.070Z,56.00
2019-03-01T10:35:13.105Z,55.40
2019-03-01T10:36:12.413Z,55.30
2019-03-01T10:37:13.021Z,54.70
2019-03-01T10:38:12.306Z,55.30
2019-03-01T10:39:12.408Z,53.50
2019-03-01T10:40:13.602Z,55.10
2019-03-01T10:41:12.212Z,55.30
2019-03-01T10:42:13.201Z,55.10
2019-03-01T10:43:12.304Z,55.00
2019-03-01T10:44:12.316Z,56.10
2019-03-01T10:45:12.460Z,54.20
2019-03-01T10:46:14.073Z,56.80
2019-03-01T10:47:12.295Z,56.00
2019-03-01T10:48:12.283Z,55.70
2019-03-01T10:49:12.252Z,56.60
2019-03-01T10:50:12.505Z,57.10
2019-03-01T10:51:12.289Z,53.80
2019-03-01T10:52:12.295Z,56.80
2019-03-01T10:53:12.289Z,56.00
2019-03-01T10:58:00.449Z,48.40
2019-03-01T10:59:03.521Z,52.40
2019-03-01T11:00:00.451Z,55.70
2019-03-01T11:09:44.820Z,52.30
2019-03-01T11:10:43.377Z,57.60
2019-03-01T11:11:41.854Z,58.40
2019-03-01T11:12:41.821Z,57.90
2019-03-01T11:13:42.724Z,59.70
2019-03-01T11:14:42.697Z,56.10
2019-03-01T11:15:43.537Z,59.10
2019-03-01T11:18:21.487Z,56.90
2019-03-01T11:19:20.238Z,61.00
2019-03-01T11:20:23.886Z,58.30
2019-03-01T11:21:19.758Z,58.20
2019-03-01T11:22:19.767Z,53.60
2019-03-01T11:23:19.971Z,51.70
2019-03-01T11:24:19.704Z,52.80
2019-03-01T11:27:28.533Z,43.70
2019-03-01T11:28:02.295Z,48.30
2019-03-01T11:29:02.044Z,46.60
2019-03-01T11:30:01.984Z,47.70
2019-03-01T11:31:02.759Z,46.00
2019-03-01T11:32:02.048Z,47.60
2019-03-01T11:33:02.019Z,49.10
2019-03-01T11:34:01.990Z,50.00
2019-03-01T11:35:01.934Z,50.10
2019-03-01T11:36:01.928Z,49.70
2019-03-01T11:37:01.914Z,51.10
2019-03-01T11:38:01.911Z,50.40
2019-03-01T11:39:02.080Z,50.20
2019-03-01T11:40:01.879Z,52.40
2019-03-01T11:41:01.862Z,53.10
2019-03-01T11:42:01.867Z,47.00
2019-03-01T11:43:01.968Z,50.70
2019-03-01T11:44:01.843Z,49.80
2019-03-01T11:45:01.830Z,46.30
2019-03-01T11:46:01.835Z,46.40
2019-03-01T11:47:01.806Z,49.30
2019-03-01T11:48:01.785Z,49.70
2019-03-01T11:49:01.822Z,49.60
2019-03-01T11:50:01.805Z,51.90
2019-03-01T11:51:01.762Z,49.90
2019-03-01T11:52:01.742Z,49.50
2019-03-01T11:53:01.749Z,49.60
2019-03-01T11:54:01.735Z,47.70
2019-03-01T11:55:01.741Z,45.60
2019-03-01T11:56:01.694Z,46.60
2019-03-01T11:57:01.702Z,44.50
2019-03-01T11:58:01.796Z,48.00
2019-03-01T11:59:01.662Z,44.40
2019-03-01T12:00:01.654Z,47.80
2019-03-01T12:01:01.660Z,48.20
2019-03-01T12:02:01.690Z,45.40
2019-03-01T12:03:01.629Z,44.30
2019-03-01T12:04:01.611Z,44.60
2019-03-01T12:05:01.690Z,39.40
2019-03-01T12:06:01.605Z,40.20
2019-03-01T12:07:01.605Z,40.80
2019-03-01T12:08:01.568Z,43.30
2019-03-01T12:09:01.648Z,42.10
2019-03-01T12:10:01.784Z,42.80
2019-03-01T12:11:01.783Z,43.30
2019-03-01T12:12:01.602Z,44.70
2019-03-01T12:13:01.514Z,41.80
2019-03-01T12:14:01.507Z,38.30
2019-03-01T12:15:01.495Z,41.40
2019-03-01T12:16:01.524Z,38.60
2019-03-01T12:17:02.273Z,40.50
2019-03-01T12:18:01.458Z,39.70
2019-03-01T12:19:01.444Z,40.30
2019-03-01T12:20:01.473Z,39.30
2019-03-01T12:21:03.316Z,38.00
2019-03-01T12:22:01.542Z,39.60
2019-03-01T12:23:01.460Z,39.50
2019-03-01T12:24:01.432Z,37.90
2019-03-01T12:25:01.397Z,37.50
2019-03-01T12:26:01.514Z,35.00
2019-03-01T12:27:01.418Z,37.80
2019-03-01T12:28:03.261Z,34.70
2019-03-01T12:30:20.564Z,35.20
2019-03-01T12:31:20.249Z,36.90
2019-03-01T12:32:20.110Z,35.90
2019-03-01T12:33:20.180Z,34.80
2019-03-01T12:34:20.048Z,35.30
2019-03-01T12:35:20.065Z,36.90
2019-03-01T12:36:20.017Z,38.50
2019-03-01T12:37:20.044Z,38.50
2019-03-01T12:38:20.002Z,35.50
2019-03-01T12:39:19.994Z,36.20
2019-03-01T12:40:20.037Z,38.30
2019-03-01T12:41:19.960Z,35.30
2019-03-01T12:42:20.014Z,31.70
2019-03-01T12:43:20.098Z,31.70
2019-03-01T12:44:19.934Z,30.00
2019-03-01T12:45:19.920Z,26.70
2019-03-01T12:46:21.149Z,29.40
2019-03-01T12:47:24.992Z,27.50
2019-03-01T12:48:19.914Z,28.30
2019-03-01T12:49:19.921Z,28.80
2019-03-01T12:50:19.863Z,28.20
2019-03-01T12:51:20.099Z,25.50
2019-03-01T12:52:19.888Z,28.60
2019-03-01T12:53:20.360Z,25.80
2019-03-01T12:54:20.445Z,25.90
2019-03-01T12:55:19.825Z,27.50
2019-03-01T12:56:19.809Z,28.00
2019-03-01T12:57:20.353Z,27.30
2019-03-01T12:58:19.867Z,26.00
2019-03-01T12:59:19.810Z,25.60
2019-03-01T13:00:19.754Z,24.50
2019-03-01T13:01:19.796Z,26.40
2019-03-01T13:02:19.743Z,25.20
2019-03-01T13:03:19.759Z,24.10
2019-03-01T13:04:19.701Z,23.40
2019-03-01T13:05:19.711Z,23.70
2019-03-01T13:06:19.718Z,24.80
2019-03-01T13:07:19.678Z,26.10
2019-03-01T13:08:19.666Z,24.20
2019-03-01T13:09:19.964Z,22.60
2019-03-01T13:10:19.816Z,25.10
2019-03-01T13:11:19.641Z,25.50
2019-03-01T13:12:22.410Z,25.00
2019-03-01T13:13:20.605Z,26.00
2019-03-01T13:14:19.608Z,26.60
2019-03-01T13:15:19.625Z,24.00
2019-03-01T13:16:19.886Z,23.80
2019-03-01T13:17:19.656Z,24.30
2019-03-01T13:18:19.557Z,24.90
2019-03-01T13:19:19.621Z,24.70
2019-03-01T13:20:19.780Z,24.30
2019-03-01T13:21:19.637Z,23.70
2019-03-01T13:22:19.556Z,24.00
2019-03-01T13:23:19.531Z,22.50
2019-03-01T13:24:19.562Z,22.00
2019-03-01T13:25:19.540Z,23.20
2019-03-01T13:26:19.555Z,23.80
2019-03-01T13:27:19.524Z,22.90
2019-03-01T13:28:19.456Z,22.80
2019-03-01T13:29:22.285Z,23.40
2019-03-01T13:30:19.496Z,24.60
2019-03-01T13:31:19.483Z,23.90
2019-03-01T13:32:19.979Z,23.60
2019-03-01T13:33:19.451Z,24.30
2019-03-01T13:34:20.742Z,23.10
2019-03-01T13:35:22.370Z,22.90
2019-03-01T13:36:20.473Z,22.30
2019-03-01T13:37:20.354Z,23.00
2019-03-01T13:38:22.433Z,22.60
2019-03-01T13:52:31.442Z,22.00
2019-03-01T13:53:33.162Z,22.90
2019-03-01T13:54:30.175Z,23.80
2019-03-01T13:55:31.721Z,23.10
2019-03-01T13:56:32.875Z,23.20
2019-03-01T13:57:30.909Z,23.60
2019-03-01T13:58:29.883Z,24.10
2019-03-01T13:59:29.868Z,24.40
2019-03-01T14:00:30.043Z,23.80
2019-03-01T14:01:29.881Z,23.50
2019-03-01T14:02:29.849Z,23.80
2019-03-01T14:03:29.856Z,23.20
2019-03-01T14:04:29.975Z,23.80
2019-03-01T14:05:29.905Z,23.00
2019-03-01T14:06:29.871Z,23.80
2019-03-01T14:07:29.896Z,24.10
2019-03-01T14:08:30.016Z,23.50
2019-03-01T14:09:29.787Z,23.50
2019-03-01T14:10:29.953Z,24.30
2019-03-01T14:11:30.583Z,23.70
2019-03-01T14:12:30.635Z,24.70
2019-03-01T14:13:29.970Z,23.50
2019-03-01T14:14:29.818Z,23.00
2019-03-01T14:15:30.055Z,23.90
2019-03-01T14:16:29.765Z,24.20
2019-03-01T14:17:30.595Z,24.30
2019-03-01T14:18:29.853Z,24.20
2019-03-01T14:19:29.871Z,24.90
2019-03-01T14:20:30.619Z,24.70
2019-03-01T14:21:32.936Z,23.20
2019-03-01T14:24:05.246Z,19.40
2019-03-01T14:25:05.234Z,23.30
2019-03-01T14:26:06.929Z,22.30
2019-03-01T14:27:04.825Z,23.30
2019-03-01T14:28:05.180Z,21.50
2019-03-01T14:29:04.678Z,21.90
2019-03-01T14:30:04.793Z,23.30
2019-03-01T14:31:07.483Z,22.20
2019-03-01T14:32:04.672Z,23.50
2019-03-01T14:33:04.658Z,23.40
2019-03-01T14:34:04.627Z,21.30
2019-03-01T14:35:05.688Z,22.60
2019-03-01T14:36:04.644Z,23.20
2019-03-01T14:37:04.676Z,22.70
2019-03-01T14:38:04.670Z,22.50
2019-03-01T14:39:06.754Z,23.20
2019-03-01T14:40:04.656Z,23.20
2019-03-01T14:41:04.578Z,22.70
2019-03-01T14:42:07.241Z,23.10
2019-03-01T14:43:05.657Z,21.80
2019-03-01T14:46:22.108Z,21.80
2019-03-01T14:47:20.956Z,22.60
2019-03-01T15:31:41.674Z,18.80
2019-03-01T15:32:40.385Z,23.30
2019-03-01T15:33:46.525Z,22.20
2019-03-01T15:34:41.522Z,22.30
2019-03-01T15:35:40.726Z,22.20
2019-03-01T15:36:39.958Z,23.20
2019-03-01T15:37:40.094Z,22.30
2019-03-01T15:38:40.114Z,21.70
2019-03-01T15:39:40.413Z,22.40
2019-03-01T15:40:40.085Z,21.30
2019-03-01T15:41:42.077Z,20.80
2019-03-01T15:42:39.918Z,22.00
2019-03-01T15:43:39.949Z,22.40
2019-03-01T15:44:39.842Z,21.40
2019-03-01T15:45:40.566Z,21.80
2019-03-01T15:46:39.879Z,23.50
2019-03-01T15:47:39.829Z,23.40
2019-03-01T15:48:39.864Z,22.30
2019-03-01T15:49:39.778Z,22.30
2019-03-01T15:50:39.824Z,22.20
2019-03-01T15:51:39.772Z,23.20
2019-03-01T15:52:39.784Z,21.90
2019-03-01T15:53:39.815Z,23.60
2019-03-01T15:54:39.730Z,23.20
2019-03-01T15:55:39.797Z,22.10
2019-03-01T15:56:42.988Z,22.90
2019-03-01T15:57:39.699Z,23.10
2019-03-01T15:58:39.723Z,22.90
2019-03-01T15:59:47.791Z,23.40
2019-03-01T16:00:39.673Z,23.90
2019-03-01T16:01:39.650Z,23.40
2019-03-01T16:02:40.141Z,23.50
2019-03-01T16:03:40.328Z,23.80
2019-03-01T16:04:46.346Z,23.10
2019-03-01T16:05:39.804Z,22.30
2019-03-01T16:11:53.208Z,23.30
2019-03-01T16:12:36.221Z,23.00
2019-03-01T16:14:52.562Z,20.40
2019-03-01T16:15:51.958Z,22.20
2019-03-01T16:16:51.991Z,20.90
2019-03-01T16:17:51.924Z,21.20
2019-03-01T16:18:51.891Z,22.10
2019-03-01T16:19:53.405Z,22.00
2019-03-01T16:20:51.858Z,21.60
2019-03-01T16:21:51.890Z,21.60
2019-03-01T16:22:54.135Z,21.20
2019-03-01T16:23:51.912Z,22.80
2019-03-01T16:24:51.824Z,21.70
2019-03-01T16:25:53.121Z,20.70
2019-03-01T16:26:51.863Z,21.00
2019-03-01T16:27:54.296Z,20.70
2019-03-01T16:28:51.920Z,19.60
2019-03-01T16:29:51.822Z,19.40
2019-03-01T16:30:53.619Z,19.70
2019-03-01T16:31:51.973Z,19.70
2019-03-01T16:32:51.738Z,19.70
2019-03-01T16:33:52.061Z,19.00
2019-03-01T16:34:51.783Z,17.60
2019-03-01T16:35:52.531Z,17.80
2019-03-01T16:38:21.182Z,15.00
2019-03-01T16:39:20.509Z,16.20
2019-03-01T16:40:19.947Z,17.30
2019-03-01T16:41:18.220Z,16.40
2019-03-01T16:42:18.888Z,14.50
2019-03-01T16:43:18.320Z,15.00
2019-03-01T16:44:18.101Z,15.30
2019-03-01T16:45:20.998Z,14.50
2019-03-01T16:46:18.757Z,15.30
2019-03-01T16:47:18.822Z,15.60
2019-03-01T16:48:18.133Z,14.60
2019-03-01T16:49:18.653Z,15.30
2019-03-01T16:50:18.757Z,14.20
2019-03-01T16:51:18.747Z,15.00
2019-03-01T16:52:18.029Z,16.20
2019-03-01T16:53:18.041Z,13.90
2019-03-01T16:54:18.279Z,14.20
2019-03-01T16:55:19.782Z,14.50
2019-03-01T16:56:20.774Z,15.00
2019-03-01T16:57:18.636Z,13.60
2019-03-01T16:58:17.995Z,14.70
2019-03-01T16:59:18.054Z,13.60
2019-03-01T17:00:19.158Z,13.20
2019-03-01T17:01:17.917Z,12.70
2019-03-01T17:02:17.998Z,12.00
2019-03-01T17:03:18.250Z,12.40
2019-03-01T17:04:18.017Z,12.10
2019-03-01T17:05:18.322Z,12.50
2019-03-01T17:06:18.091Z,11.90
2019-03-01T17:08:31.103Z,12.00
2019-03-01T17:09:30.713Z,12.50
2019-03-01T17:10:31.231Z,12.30
2019-03-01T17:11:30.774Z,11.80
2019-03-01T17:12:30.582Z,11.10
2019-03-01T17:13:30.550Z,12.50
2019-03-01T17:14:30.711Z,12.60
2019-03-01T17:15:30.556Z,13.00
2019-03-01T17:16:30.516Z,12.70
2019-03-01T17:17:33.022Z,11.70
2019-03-01T17:18:31.534Z,12.50
2019-03-01T17:19:30.528Z,12.70
2019-03-01T17:20:30.467Z,12.00
2019-03-01T17:21:30.532Z,12.10
2019-03-01T17:22:30.467Z,12.80
2019-03-01T17:23:30.446Z,12.30
2019-03-01T17:24:30.530Z,12.50
2019-03-01T17:25:30.447Z,12.50
2019-03-01T17:26:30.842Z,12.20
2019-03-01T17:27:30.390Z,11.70
2019-03-01T17:28:30.382Z,11.10
2019-03-01T17:29:31.614Z,11.00
2019-03-01T17:30:30.395Z,11.40
2019-03-01T17:31:30.348Z,11.70
2019-03-01T17:32:30.360Z,11.20
2019-03-01T17:33:30.332Z,10.60
2019-03-01T17:34:31.829Z,11.30
2019-03-01T17:35:30.304Z,10.80
2019-03-01T17:36:30.289Z,10.00
2019-03-01T17:37:32.378Z,11.20
2019-03-01T17:38:30.914Z,10.90
2019-03-01T17:39:30.323Z,10.60
2019-03-01T17:40:32.474Z,11.20
2019-03-01T17:41:30.290Z,11.20
2019-03-01T17:42:30.281Z,11.60
2019-03-01T17:43:32.719Z,10.90
2019-03-01T17:44:30.210Z,11.50
2019-03-01T17:45:30.413Z,11.00
2019-03-01T17:46:32.918Z,11.00
2019-03-01T17:47:30.227Z,10.70
2019-03-01T17:48:30.477Z,10.60
2019-03-01T17:49:33.074Z,11.00
2019-03-01T17:50:30.287Z,10.60
2019-03-01T17:51:35.408Z,10.80
2019-03-01T17:52:30.538Z,11.40
2019-03-01T17:55:30.949Z,10.50
2019-03-01T17:56:31.200Z,11.70
2019-03-01T17:57:32.955Z,11.50
2019-03-01T17:58:30.613Z,11.60
2019-03-01T17:59:30.619Z,11.50
2019-03-01T18:00:31.409Z,11.10
2019-03-01T18:03:15.694Z,11.00
2019-03-01T18:04:15.112Z,11.00
2019-03-01T18:05:15.315Z,11.20
2019-03-01T18:06:16.848Z,11.70
2019-03-01T18:07:27.193Z,10.60
2019-03-01T18:08:14.915Z,11.10
2019-03-01T18:09:16.162Z,11.80
2019-03-01T18:10:15.254Z,11.80
2019-03-01T18:12:26.647Z,11.20
2019-03-01T18:13:26.086Z,11.80
2019-03-01T18:14:25.943Z,11.40
2019-03-01T18:15:27.313Z,11.00
2019-03-01T18:16:25.924Z,11.20
2019-03-01T18:17:25.855Z,10.50
2019-03-01T18:18:25.852Z,11.10
2019-03-01T18:19:26.611Z,11.10
2019-03-01T18:20:25.820Z,10.70
2019-03-01T18:21:25.823Z,10.80
2019-03-01T18:22:26.535Z,10.40
2019-03-01T18:23:25.826Z,11.40
2019-03-01T18:24:25.788Z,11.20
2019-03-01T18:25:26.338Z,11.20
2019-03-01T18:26:25.828Z,11.10
2019-03-01T18:27:25.752Z,13.10
2019-03-01T18:28:28.283Z,12.00
2019-03-01T18:29:25.922Z,10.60
2019-03-01T18:30:25.766Z,11.10
2019-03-01T18:31:28.286Z,11.60
2019-03-01T18:32:27.733Z,11.20
2019-03-01T18:33:25.686Z,12.00
2019-03-01T18:34:25.661Z,11.90
2019-03-01T18:35:25.655Z,11.40
2019-03-01T18:36:28.247Z,11.30
2019-03-01T18:37:26.642Z,11.40
2019-03-01T18:38:27.653Z,12.30
2019-03-01T18:39:26.602Z,12.70
2019-03-01T18:40:25.684Z,11.10
2019-03-01T18:41:27.476Z,11.60
2019-03-01T18:42:25.585Z,12.00
2019-03-01T18:43:25.681Z,12.30
2019-03-01T18:44:25.887Z,12.70
2019-03-01T18:45:25.694Z,12.00
2019-03-01T18:46:25.790Z,11.90
2019-03-01T18:47:27.905Z,12.40
2019-03-01T18:48:25.638Z,12.70
2019-03-01T18:49:25.496Z,12.20
2019-03-01T18:50:27.704Z,11.40
2019-03-01T18:53:03.370Z,11.20
2019-03-01T18:54:00.683Z,12.20
2019-03-01T18:55:00.289Z,12.50
2019-03-01T18:56:00.172Z,12.00
2019-03-01T18:57:00.766Z,12.10
2019-03-01T18:58:00.100Z,12.70
2019-03-01T18:59:00.163Z,11.90
2019-03-01T19:00:01.195Z,11.40
2019-03-01T19:03:28.705Z,9.10
2019-03-01T19:04:29.539Z,10.50
2019-03-01T19:05:31.903Z,11.00
2019-03-01T19:06:29.315Z,12.10
2019-03-01T19:07:28.624Z,12.50
2019-03-01T19:08:28.095Z,12.50
2019-03-01T19:09:28.155Z,11.70
2019-03-01T19:15:56.582Z,9.10
2019-03-01T19:16:56.175Z,9.20
2019-03-01T19:17:56.109Z,10.10
2019-03-01T19:18:56.209Z,8.00
2019-03-01T19:21:14.037Z,7.40
2019-03-01T19:22:12.335Z,7.80
2019-03-01T19:23:12.196Z,8.50
2019-03-01T19:24:12.374Z,8.10
2019-03-01T19:25:12.353Z,8.10
2019-03-01T19:26:12.148Z,7.90
2019-03-01T19:27:15.617Z,8.50
2019-03-01T19:28:12.129Z,7.90
2019-03-01T19:29:12.136Z,8.50
2019-03-01T19:30:13.548Z,8.00
2019-03-01T19:31:12.067Z,8.30
2019-03-01T19:32:12.034Z,8.80
2019-03-01T19:33:12.072Z,8.60
2019-03-01T19:34:13.114Z,10.20
2019-03-01T19:35:12.006Z,10.30
2019-03-01T19:36:11.994Z,9.50
2019-03-01T19:37:13.343Z,9.90
2019-03-01T19:38:11.973Z,10.20
2019-03-01T19:39:12.292Z,8.40
2019-03-01T19:40:12.057Z,9.50
2019-03-01T19:41:11.975Z,9.30
2019-03-01T19:42:11.923Z,9.60
2019-03-01T19:43:12.007Z,9.80
2019-03-01T19:44:11.901Z,8.40
2019-03-01T19:45:11.896Z,9.60
2019-03-01T19:46:12.712Z,9.90
2019-03-01T19:47:12.067Z,10.10
2019-03-01T19:48:11.971Z,10.30
2019-03-01T19:49:12.831Z,9.60
2019-03-01T19:50:11.831Z,10.40
2019-03-01T19:52:22.509Z,8.00
2019-03-01T19:53:25.408Z,9.20
2019-03-01T19:54:22.113Z,10.00
2019-03-01T19:55:22.070Z,9.90
2019-03-01T19:56:25.756Z,9.30
2019-03-01T19:57:22.016Z,10.70
2019-03-01T19:58:22.439Z,10.40
2019-03-01T19:59:22.067Z,9.10
2019-03-01T20:00:21.923Z,8.80
2019-03-01T20:01:21.934Z,10.50
2019-03-01T20:02:22.019Z,10.70
2019-03-01T20:03:21.947Z,9.60
2019-03-01T20:04:21.975Z,8.70
2019-03-01T20:05:21.964Z,8.50
2019-03-01T20:06:22.014Z,9.10
2019-03-01T20:07:22.829Z,9.00
2019-03-01T20:08:22.801Z,8.40
2019-03-01T20:09:22.039Z,7.50
2019-03-01T20:13:24.733Z,8.20
2019-03-01T20:14:23.950Z,7.80
2019-03-01T20:15:23.382Z,7.80
2019-03-01T20:16:23.463Z,7.90
2019-03-01T20:18:47.646Z,6.50
2019-03-01T20:19:47.115Z,6.90
2019-03-01T20:20:48.906Z,7.40
2019-03-01T20:21:48.349Z,7.40
2019-03-01T20:48:32.286Z,7.20
2019-03-01T20:57:46.695Z,7.10
2019-03-01T20:58:44.000Z,6.10
2019-03-01T20:59:46.809Z,7.10
2019-03-01T21:00:44.603Z,6.60
2019-03-01T21:01:43.798Z,6.60
2019-03-01T21:02:46.890Z,6.60
2019-03-01T21:03:44.577Z,7.00
2019-03-01T21:04:52.975Z,7.70
2019-03-01T21:05:44.578Z,6.20
2019-03-01T21:06:43.882Z,5.80
2019-03-01T21:07:44.200Z,6.10
2019-03-01T21:08:43.513Z,5.80
2019-03-01T21:09:43.499Z,6.30
2019-03-01T21:10:46.716Z,6.10
2019-03-01T21:11:43.722Z,5.70
2019-03-01T21:12:43.475Z,5.30
2019-03-01T21:13:45.734Z,5.30
2019-03-01T21:14:44.463Z,5.60
2019-03-01T21:15:43.474Z,5.80
2019-03-01T21:16:44.782Z,5.30
2019-03-01T21:17:43.417Z,5.50
2019-03-01T21:18:43.417Z,5.70
2019-03-01T21:19:43.788Z,5.90
2019-03-01T21:20:43.403Z,5.80
2019-03-01T21:21:43.420Z,5.30
2019-03-01T21:22:43.362Z,5.30
2019-03-01T21:23:43.445Z,5.90
2019-03-01T21:24:43.350Z,5.00
2019-03-01T21:25:43.384Z,5.50
2019-03-01T21:26:43.375Z,6.50
2019-03-01T21:27:43.311Z,5.60
2019-03-01T21:28:43.299Z,5.70
2019-03-01T21:29:44.689Z,5.10
2019-03-01T21:30:43.334Z,5.20
2019-03-01T21:31:43.261Z,5.10
2019-03-01T21:32:43.302Z,5.10
2019-03-01T21:33:43.276Z,5.40
2019-03-01T21:34:43.230Z,5.00
2019-03-01T21:35:43.302Z,5.30
2019-03-01T21:36:43.209Z,5.10
2019-03-01T21:37:43.202Z,5.00
2019-03-01T21:38:45.745Z,5.10
2019-03-01T21:39:44.181Z,6.00
2019-03-01T21:40:43.177Z,7.00
2019-03-01T21:41:44.751Z,6.30
2019-03-01T21:47:50.774Z,5.30
2019-03-01T21:48:48.779Z,5.70
2019-03-01T21:49:48.786Z,6.00
2019-03-01T21:54:12.602Z,5.70
2019-03-01T21:55:10.752Z,6.60
2019-03-01T21:56:11.482Z,5.70
2019-03-01T21:58:25.866Z,5.30
2019-03-01T21:59:25.279Z,5.90
2019-03-01T22:00:29.774Z,5.50
2019-03-01T22:01:26.229Z,6.30
2019-03-01T22:02:26.211Z,5.90
2019-03-01T22:03:28.251Z,7.60
2019-03-01T22:04:25.152Z,6.90
2019-03-01T22:05:25.644Z,7.00
2019-03-01T22:06:25.080Z,7.30
2019-03-01T22:07:26.570Z,7.10
2019-03-01T22:08:25.062Z,7.20
2019-03-01T22:09:25.467Z,8.00
2019-03-01T22:10:25.096Z,7.20
2019-03-01T22:12:50.188Z,6.70
2019-03-01T22:13:49.745Z,7.30
2019-03-01T22:21:22.591Z,7.50
2019-03-01T22:22:18.237Z,7.30
2019-03-01T22:30:01.292Z,6.90
2019-03-01T22:33:07.750Z,7.70
2019-03-01T22:35:25.884Z,8.20
2019-03-01T22:36:23.121Z,7.90
2019-03-01T22:38:50.047Z,7.90
2019-03-01T22:39:36.037Z,8.30
2019-03-01T22:40:34.960Z,8.60
2019-03-01T22:41:35.587Z,9.00
2019-03-01T22:42:51.883Z,9.20
2019-03-01T22:43:34.194Z,8.80
2019-03-01T22:44:36.521Z,9.10
2019-03-01T22:45:34.858Z,9.10
2019-03-01T22:46:34.960Z,9.40
2019-03-01T22:47:37.397Z,9.40
2019-03-01T22:48:34.277Z,10.00
2019-03-01T22:49:35.995Z,9.80
2019-03-01T22:50:34.479Z,10.10
2019-03-01T22:51:34.102Z,10.30
2019-03-01T22:52:45.146Z,10.80
2019-03-01T22:53:34.971Z,11.10
2019-03-01T22:54:48.997Z,10.90
2019-03-01T22:55:36.797Z,10.30
2019-03-01T22:56:35.851Z,11.60
2019-03-01T22:57:34.081Z,11.00
2019-03-01T22:58:36.474Z,11.60
2019-03-01T23:07:32.174Z,11.30
2019-03-01T23:10:38.330Z,12.20
2019-03-01T23:11:39.449Z,14.40
2019-03-01T23:15:07.961Z,13.10
2019-03-01T23:16:07.405Z,14.10
2019-03-01T23:17:07.134Z,14.90
2019-03-01T23:18:06.872Z,14.90
2019-03-01T23:19:12.747Z,14.50
2019-03-01T23:20:08.464Z,15.00
2019-03-01T23:22:34.389Z,14.60
2019-03-01T23:23:32.849Z,14.40
2019-03-01T23:27:37.316Z,15.50
2019-03-01T23:28:32.221Z,15.30
2019-03-01T23:34:38.912Z,15.10
2019-03-01T23:35:19.586Z,15.60
2019-03-01T23:38:06.425Z,15.00
2019-03-01T23:51:48.016Z,17.80
2019-03-01T23:53:05.575Z,19.60
2019-03-01T23:57:14.980Z,17.80
